createdAt,value
2018-06-15T00:04:36.183Z,50.30
2018-06-15T00:09:27.054Z,51.00
2018-06-15T00:14:17.947Z,50.90
2018-06-15T00:19:08.835Z,51.20
2018-06-15T00:23:59.740Z,51.10
2018-06-15T00:28:50.662Z,51.10
2018-06-15T00:33:41.560Z,51.40
2018-06-15T00:38:32.444Z,51.10
2018-06-15T00:43:23.344Z,50.80
2018-06-15T00:48:14.968Z,50.50
2018-06-15T00:53:05.864Z,50.40
2018-06-15T00:57:56.767Z,51.00
2018-06-15T01:02:47.680Z,50.80
2018-06-15T01:07:38.584Z,50.70
2018-06-15T01:12:29.471Z,51.00
2018-06-15T01:17:21.103Z,50.50
2018-06-15T01:22:12.756Z,50.30
2018-06-15T01:27:03.652Z,50.30
2018-06-15T01:31:55.308Z,50.00
2018-06-15T01:36:46.199Z,49.90
2018-06-15T01:41:37.095Z,49.90
2018-06-15T01:46:27.975Z,49.80
2018-06-15T01:51:25.928Z,49.70
2018-06-15T01:56:17.575Z,49.50
2018-06-15T02:01:09.283Z,49.60
2018-06-15T02:06:00.903Z,49.60
2018-06-15T02:10:51.816Z,49.60
2018-06-15T02:15:42.720Z,49.70
2018-06-15T02:20:33.612Z,49.80
2018-06-15T02:25:24.512Z,49.90
2018-06-15T02:30:16.140Z,50.10
2018-06-15T02:35:07.813Z,50.10
2018-06-15T02:39:58.769Z,50.10
2018-06-15T02:44:49.661Z,49.90
2018-06-15T02:49:40.580Z,49.80
2018-06-15T02:54:31.526Z,49.80
2018-06-15T02:59:22.441Z,49.80
2018-06-15T03:04:13.332Z,49.70
2018-06-15T03:09:04.220Z,49.60
2018-06-15T03:13:55.873Z,49.60
2018-06-15T03:18:46.776Z,49.50
2018-06-15T03:23:37.675Z,49.70
2018-06-15T03:28:29.300Z,50.00
2018-06-15T03:33:20.200Z,49.80
2018-06-15T03:38:11.090Z,49.90
2018-06-15T03:43:02.113Z,50.00
2018-06-15T03:47:53.016Z,50.00
2018-06-15T03:52:43.909Z,50.00
2018-06-15T03:57:35.551Z,50.10
2018-06-15T04:02:27.196Z,50.10
2018-06-15T04:07:18.111Z,50.10
2018-06-15T04:12:09.752Z,50.30
2018-06-15T04:17:00.643Z,50.10
2018-06-15T04:21:51.540Z,50.30
2018-06-15T04:26:42.441Z,50.30
2018-06-15T04:31:33.360Z,50.50
2018-06-15T04:36:24.271Z,50.50
2018-06-15T04:41:15.159Z,50.40
2018-06-15T04:46:06.044Z,50.30
2018-06-15T04:50:56.936Z,50.50
2018-06-15T04:55:47.828Z,50.80
2018-06-15T05:00:38.724Z,51.00
2018-06-15T05:05:30.357Z,51.10
2018-06-15T05:10:21.979Z,51.10
2018-06-15T05:15:13.630Z,50.90
2018-06-15T05:20:05.272Z,51.10
2018-06-15T05:24:56.184Z,51.10
2018-06-15T05:29:47.824Z,51.20
2018-06-15T05:34:38.716Z,51.10
2018-06-15T05:39:29.620Z,51.10
2018-06-15T05:44:20.528Z,51.10
2018-06-15T05:49:11.431Z,51.70
2018-06-15T05:54:02.329Z,51.60
2018-06-15T05:58:53.227Z,51.60
2018-06-15T06:03:44.865Z,51.50
2018-06-15T06:08:36.518Z,51.40
2018-06-15T06:13:27.430Z,51.40
2018-06-15T06:18:18.328Z,51.60
2018-06-15T06:23:09.970Z,51.80
2018-06-15T06:28:00.868Z,51.80
2018-06-15T06:32:51.759Z,51.90
2018-06-15T06:37:42.660Z,52.50
2018-06-15T06:42:33.563Z,52.60
2018-06-15T06:47:24.481Z,52.90
2018-06-15T06:52:15.525Z,52.80
2018-06-15T06:57:06.436Z,52.80
2018-06-15T07:01:57.344Z,52.90
2018-06-15T07:06:48.289Z,53.60
2018-06-15T07:11:39.188Z,53.10
2018-06-15T07:16:30.132Z,53.20
2018-06-15T07:21:21.020Z,53.40
2018-06-15T07:26:11.949Z,53.30
2018-06-15T07:31:02.888Z,53.30
2018-06-15T07:35:53.793Z,53.20
2018-06-15T07:40:44.692Z,53.20
2018-06-15T07:45:35.588Z,53.00
2018-06-15T07:50:27.243Z,52.80
2018-06-15T07:55:18.181Z,52.70
2018-06-15T08:00:09.080Z,52.70
2018-06-15T08:04:59.981Z,52.50
2018-06-15T08:09:50.884Z,52.40
2018-06-15T08:14:42.532Z,52.60
2018-06-15T08:19:34.246Z,52.70
2018-06-15T08:24:25.137Z,52.60
2018-06-15T08:29:16.108Z,52.60
2018-06-15T08:34:07.740Z,52.70
2018-06-15T08:38:59.420Z,52.70
2018-06-15T08:43:50.309Z,52.60
2018-06-15T08:48:41.196Z,52.80
2018-06-15T08:53:32.857Z,52.60
2018-06-15T08:58:23.756Z,52.50
2018-06-15T09:03:15.399Z,52.40
2018-06-15T09:08:07.037Z,52.30
2018-06-15T09:12:58.696Z,52.50
2018-06-15T09:17:49.600Z,52.50
2018-06-15T09:22:40.549Z,52.60
2018-06-15T09:27:31.443Z,52.40
2018-06-15T09:32:22.364Z,53.10
2018-06-15T09:37:13.256Z,52.40
2018-06-15T09:42:04.891Z,52.20
2018-06-15T09:46:56.540Z,52.10
2018-06-15T09:51:47.432Z,51.90
2018-06-15T09:56:38.323Z,51.70
2018-06-15T10:01:29.236Z,51.60
2018-06-15T10:06:20.153Z,51.40
2018-06-15T10:11:11.052Z,51.20
2018-06-15T10:16:01.951Z,51.00
2018-06-15T10:20:53.580Z,50.70
2018-06-15T10:25:45.225Z,50.50
2018-06-15T10:30:36.137Z,50.50
2018-06-15T10:35:27.790Z,50.30
2018-06-15T10:40:18.684Z,50.30
2018-06-15T10:45:10.335Z,50.00
2018-06-15T10:50:01.232Z,49.90
2018-06-15T10:54:52.864Z,49.60
2018-06-15T10:59:43.757Z,49.60
2018-06-15T11:04:34.651Z,49.50
2018-06-15T11:09:25.544Z,49.30
2018-06-15T11:14:16.452Z,49.30
2018-06-15T11:19:08.140Z,48.80
2018-06-15T11:23:59.036Z,48.80
2018-06-15T11:28:49.927Z,48.80
2018-06-15T11:33:41.649Z,48.80
2018-06-15T11:38:33.280Z,48.70
2018-06-15T11:43:24.169Z,48.60
2018-06-15T11:48:15.065Z,49.10
2018-06-15T11:53:05.967Z,48.40
2018-06-15T11:57:56.896Z,48.40
2018-06-15T12:02:47.804Z,48.30
2018-06-15T12:07:38.704Z,48.40
2018-06-15T12:12:30.342Z,48.50
2018-06-15T12:17:21.990Z,48.30
2018-06-15T12:22:12.891Z,48.30
2018-06-15T12:27:04.524Z,47.70
2018-06-15T12:31:56.157Z,47.60
2018-06-15T12:36:47.787Z,47.70
2018-06-15T12:41:39.451Z,47.70
2018-06-15T12:46:30.356Z,47.60
2018-06-15T12:51:22.028Z,46.60
2018-06-15T12:56:13.624Z,46.50
2018-06-15T13:01:04.548Z,46.40
2018-06-15T13:05:56.186Z,46.20
2018-06-15T13:10:47.083Z,46.20
2018-06-15T13:15:37.983Z,46.10
2018-06-15T13:20:28.993Z,46.10
2018-06-15T13:25:19.904Z,46.00
2018-06-15T13:30:17.865Z,45.90
2018-06-15T13:35:08.884Z,45.90
2018-06-15T13:39:59.808Z,45.80
2018-06-15T13:44:50.704Z,45.90
2018-06-15T13:49:42.340Z,46.20
2018-06-15T13:54:33.232Z,46.20
2018-06-15T13:59:24.139Z,46.20
2018-06-15T14:04:15.033Z,46.30
2018-06-15T14:09:05.977Z,46.30
2018-06-15T14:13:56.871Z,46.30
2018-06-15T14:18:47.760Z,46.20
2018-06-15T14:23:38.653Z,46.30
2018-06-15T14:28:30.304Z,46.30
2018-06-15T14:33:21.375Z,46.20
2018-06-15T14:38:12.264Z,46.10
2018-06-15T14:43:03.153Z,46.30
2018-06-15T14:47:54.784Z,46.70
2018-06-15T14:52:46.415Z,46.50
2018-06-15T14:57:38.053Z,46.40
2018-06-15T15:02:29.700Z,46.60
2018-06-15T15:07:20.842Z,47.20
2018-06-15T15:12:11.735Z,46.80
2018-06-15T15:17:03.361Z,46.80
2018-06-15T15:21:54.995Z,46.80
2018-06-15T15:26:46.632Z,47.00
2018-06-15T15:31:38.284Z,47.00
2018-06-15T15:36:29.196Z,47.00
2018-06-15T15:41:20.096Z,46.80
2018-06-15T15:46:11.805Z,46.60
2018-06-15T15:51:02.696Z,46.50
2018-06-15T15:55:53.593Z,46.60
2018-06-15T16:00:44.501Z,46.70
2018-06-15T16:05:36.149Z,46.50
2018-06-15T16:10:27.776Z,46.70
2018-06-15T16:15:19.399Z,47.10
2018-06-15T16:20:11.100Z,47.30
2018-06-15T16:25:01.988Z,47.20
2018-06-15T16:29:52.884Z,47.50
2018-06-15T16:34:44.517Z,48.00
2018-06-15T16:39:35.420Z,48.00
2018-06-15T16:44:26.317Z,48.30
2018-06-15T16:49:17.220Z,48.50
2018-06-15T16:54:08.100Z,48.60
2018-06-15T16:58:59.736Z,49.00
2018-06-15T17:03:50.816Z,48.80
2018-06-15T17:08:41.761Z,49.10
2018-06-15T17:13:33.469Z,49.40
2018-06-15T17:18:24.727Z,49.30
2018-06-15T17:23:16.361Z,49.70
2018-06-15T17:28:08.053Z,49.70
2018-06-15T17:32:58.948Z,49.70
2018-06-15T17:37:49.852Z,49.90
2018-06-15T17:42:40.745Z,50.00
2018-06-15T17:47:31.636Z,50.60
2018-06-15T17:52:22.520Z,50.10
2018-06-15T17:57:13.408Z,50.30
2018-06-15T18:02:05.061Z,50.20
2018-06-15T18:06:55.972Z,50.20
2018-06-15T18:11:46.873Z,50.20
2018-06-15T18:16:38.526Z,50.40
2018-06-15T18:21:29.533Z,50.40
2018-06-15T18:26:21.217Z,50.70
2018-06-15T18:31:12.106Z,50.70
2018-06-15T18:36:02.993Z,50.80
2018-06-15T18:40:54.628Z,51.10
2018-06-15T18:45:45.520Z,50.90
2018-06-15T18:50:36.445Z,51.30
2018-06-15T18:55:27.349Z,51.40
2018-06-15T19:00:18.244Z,51.40
2018-06-15T19:05:09.139Z,51.40
2018-06-15T19:10:00.772Z,51.10
2018-06-15T19:14:52.416Z,51.00
2018-06-15T19:19:43.303Z,51.00
2018-06-15T19:24:34.196Z,51.00
2018-06-15T19:29:25.084Z,51.30
2018-06-15T19:34:16.032Z,51.40
2018-06-15T19:39:06.944Z,51.60
2018-06-15T19:43:57.867Z,51.70
2018-06-15T19:48:48.776Z,51.90
2018-06-15T19:53:39.668Z,51.90
2018-06-15T19:58:30.581Z,52.10
2018-06-15T20:03:21.485Z,51.80
2018-06-15T20:08:13.129Z,52.20
2018-06-15T20:13:04.020Z,52.10
2018-06-15T20:17:55.668Z,52.10
2018-06-15T20:22:47.432Z,52.20
2018-06-15T20:27:38.323Z,52.10
2018-06-15T20:32:29.957Z,52.10
2018-06-15T20:37:21.591Z,52.30
2018-06-15T20:42:13.237Z,52.40
2018-06-15T20:47:04.860Z,52.40
2018-06-15T20:51:56.509Z,52.60
2018-06-15T20:56:48.165Z,52.70
2018-06-15T21:01:39.069Z,52.60
2018-06-15T21:06:30.723Z,52.80
2018-06-15T21:11:21.616Z,52.70
2018-06-15T21:16:13.361Z,52.70
2018-06-15T21:21:04.268Z,52.60
2018-06-15T21:25:55.900Z,52.90
2018-06-15T21:30:47.672Z,53.10
2018-06-15T21:35:38.568Z,53.10
2018-06-15T21:40:30.200Z,53.10
2018-06-15T21:45:21.829Z,53.00
2018-06-15T21:50:13.480Z,53.10
2018-06-15T21:55:04.373Z,52.90
2018-06-15T21:59:55.280Z,53.20
2018-06-15T22:04:46.913Z,53.30
2018-06-15T22:09:37.813Z,53.30
2018-06-15T22:14:28.716Z,53.40
2018-06-15T22:19:19.609Z,53.20
2018-06-15T22:24:10.491Z,53.40
2018-06-15T22:29:01.384Z,53.30
2018-06-15T22:33:52.276Z,53.40
2018-06-15T22:38:43.159Z,53.40
2018-06-15T22:43:34.809Z,53.80
2018-06-15T22:48:25.712Z,53.70
2018-06-15T22:53:17.340Z,53.80
2018-06-15T22:58:08.992Z,53.80
2018-06-15T23:03:00.626Z,54.00
2018-06-15T23:07:52.312Z,53.80
2018-06-15T23:12:43.230Z,53.80
2018-06-15T23:17:34.128Z,53.90
2018-06-15T23:22:25.063Z,53.90
2018-06-15T23:27:15.972Z,53.70
2018-06-15T23:32:06.879Z,53.80
2018-06-15T23:36:57.780Z,53.80
2018-06-15T23:41:48.691Z,54.00
2018-06-15T23:46:40.323Z,54.50
2018-06-15T23:51:31.974Z,53.90
2018-06-15T23:56:22.880Z,53.80
